Time;durP1;ratioP1;P1;durP2;ratioP2;P2;SDS_P1;SDS_P2;PMS_P1;PMS_P2;Temp;Humidity;BMP_temperature;BMP_pressure;BME280_temperature;BME280_humidity;BME280_pressure;Samples;Min_cycle;Max_cycle;Signal;HPM_P1;HPM_P2
2022/01/10 00:01:30;;;;;;;58.30;24.43;;;;;;;-5.56;100.00;96698.00;5051305;28;20311;-71
2022/01/10 00:03:58;;;;;;;55.23;21.13;;;;;;;-5.50;100.00;96703.81;5051732;28;20774;-71
2022/01/10 00:06:25;;;;;;;63.03;23.67;;;;;;;-5.44;100.00;96705.38;5051802;28;20033;-71
2022/01/10 00:08:53;;;;;;;57.43;24.97;;;;;;;-5.36;100.00;96706.03;5052254;28;20047;-71
2022/01/10 00:11:20;;;;;;;55.17;21.37;;;;;;;-5.34;100.00;96709.44;5051969;28;20037;-71
2022/01/10 00:13:49;;;;;;;52.97;20.77;;;;;;;-5.28;100.00;96714.44;5051553;28;20295;-71
2022/01/10 00:16:17;;;;;;;46.43;18.47;;;;;;;-5.25;100.00;96722.88;5051285;28;20302;-71
2022/01/10 00:18:46;;;;;;;51.60;20.07;;;;;;;-5.30;100.00;96717.03;5051058;28;20132;-71
2022/01/10 00:21:13;;;;;;;48.47;17.73;;;;;;;-5.34;100.00;96719.69;5051218;28;20292;-71
2022/01/10 00:23:40;;;;;;;53.90;19.27;;;;;;;-5.44;100.00;96718.19;5051053;28;20060;-71
2022/01/10 00:26:08;;;;;;;44.37;17.73;;;;;;;-5.34;100.00;96723.09;5051227;28;20045;-70
2022/01/10 00:28:35;;;;;;;46.33;19.03;;;;;;;-5.22;100.00;96721.94;5050912;28;20068;-70
2022/01/10 00:31:02;;;;;;;51.17;19.50;;;;;;;-5.16;100.00;96724.38;5049632;28;20037;-70
2022/01/10 00:33:30;;;;;;;44.13;19.67;;;;;;;-5.27;100.00;96732.34;5049672;28;20041;-70
2022/01/10 00:35:57;;;;;;;52.07;18.57;;;;;;;-5.43;100.00;96725.84;5049764;28;20051;-70
2022/01/10 00:38:24;;;;;;;44.53;17.43;;;;;;;-5.41;100.00;96723.25;5051014;28;20048;-70
2022/01/10 00:40:51;;;;;;;50.97;20.20;;;;;;;-5.31;100.00;96724.75;5050859;28;20481;-70
2022/01/10 00:43:30;;;;;;;53.53;18.73;;;;;;;-5.22;100.00;96722.81;5050223;28;20033;-70
2022/01/10 00:45:57;;;;;;;57.90;19.33;;;;;;;-5.43;100.00;96725.03;5051029;28;20060;-70
2022/01/10 00:48:25;;;;;;;42.90;17.60;;;;;;;-5.46;100.00;96731.03;5051171;28;20798;-70
2022/01/10 00:50:53;;;;;;;49.10;20.00;;;;;;;-5.90;100.00;96733.72;5050594;28;20275;-70
2022/01/10 00:53:20;;;;;;;62.73;22.57;;;;;;;-6.29;100.00;96737.91;5050295;28;20499;-70
2022/01/10 00:55:47;;;;;;;60.50;21.57;;;;;;;-6.16;100.00;96724.03;5049205;28;20298;-70
2022/01/10 00:58:14;;;;;;;74.27;24.43;;;;;;;-6.13;100.00;96729.09;5050311;28;20779;-69
2022/01/10 01:00:43;;;;;;;58.40;21.30;;;;;;;-6.22;100.00;96726.69;5050089;28;20705;-68
2022/01/10 01:03:10;;;;;;;71.40;25.60;;;;;;;-6.34;100.00;96729.50;5049231;28;20356;-69
2022/01/10 01:05:40;;;;;;;61.00;25.50;;;;;;;-6.46;100.00;96732.28;5049106;28;20326;-69
2022/01/10 01:08:09;;;;;;;63.63;23.37;;;;;;;-6.32;100.00;96732.03;5049086;28;20663;-69
2022/01/10 01:13:31;;;;;;;58.20;22.90;;;;;;;-5.96;100.00;96729.56;5049831;28;20318;-70
2022/01/10 01:16:16;;;;;;;46.27;18.20;;;;;;;-5.73;100.00;96730.81;5048725;28;20321;-70
2022/01/10 01:24:23;;;;;;;48.57;18.73;;;;;;;-5.20;100.00;96733.84;5049880;28;20076;-69
2022/01/10 01:26:52;;;;;;;64.77;22.10;;;;;;;-5.11;100.00;96735.34;5049930;28;20041;-69
2022/01/10 01:29:21;;;;;;;47.83;18.80;;;;;;;-5.12;100.00;96733.69;5050232;28;20095;-70
2022/01/10 01:31:50;;;;;;;44.53;17.90;;;;;;;-5.08;100.00;96730.16;5050039;28;20045;-69
2022/01/10 01:34:18;;;;;;;51.50;19.57;;;;;;;-5.02;100.00;96732.59;5050162;28;20131;-70
2022/01/10 01:36:50;;;;;;;45.60;16.27;;;;;;;-4.87;100.00;96738.16;5031674;28;20118;-70
2022/01/10 01:39:21;;;;;;;43.00;18.80;;;;;;;-4.76;100.00;96735.34;5051547;28;20071;-70
2022/01/10 01:42:02;;;;;;;50.27;17.70;;;;;;;-4.73;100.00;96738.66;5049933;28;20051;-70
2022/01/10 01:44:29;;;;;;;46.10;20.67;;;;;;;-4.59;100.00;96740.88;5048698;28;20041;-70
2022/01/10 01:46:58;;;;;;;47.93;20.40;;;;;;;-4.48;100.00;96733.75;5049812;28;20064;-70
2022/01/10 01:49:25;;;;;;;56.10;20.60;;;;;;;-4.52;100.00;96735.56;5048754;28;20045;-69
2022/01/10 01:51:53;;;;;;;53.37;19.83;;;;;;;-4.62;100.00;96734.09;5048284;28;20045;-70
2022/01/10 01:54:21;;;;;;;46.83;20.33;;;;;;;-4.60;100.00;96736.63;5050082;28;20037;-69
2022/01/10 01:56:49;;;;;;;60.03;21.70;;;;;;;-4.62;100.00;96730.72;5048729;28;20051;-70
2022/01/10 01:59:17;;;;;;;58.13;22.83;;;;;;;-4.65;100.00;96741.88;5048265;28;20049;-69
2022/01/10 02:01:45;;;;;;;64.10;24.03;;;;;;;-4.94;100.00;96738.38;5050369;28;20119;-70
2022/01/10 02:04:15;;;;;;;62.87;22.57;;;;;;;-5.27;100.00;96741.72;5052512;28;20048;-70
2022/01/10 02:06:44;;;;;;;60.20;21.83;;;;;;;-5.37;100.00;96743.66;5052593;28;20114;-70
2022/01/10 02:09:14;;;;;;;62.93;21.87;;;;;;;-5.30;100.00;96746.91;5053678;28;20497;-70
2022/01/10 02:11:42;;;;;;;62.07;22.00;;;;;;;-5.29;100.00;96746.03;5052492;28;20044;-71
2022/01/10 02:14:09;;;;;;;57.23;20.33;;;;;;;-5.29;100.00;96748.59;5052038;28;20389;-71
2022/01/10 02:16:43;;;;;;;52.70;20.63;;;;;;;-5.36;100.00;96747.91;5052017;28;20040;-69
2022/01/10 02:19:24;;;;;;;53.03;21.13;;;;;;;-5.33;100.00;96757.22;5052371;28;20485;-69
2022/01/10 02:21:53;;;;;;;61.50;23.20;;;;;;;-5.25;100.00;96755.34;5053113;28;20033;-69
2022/01/10 02:24:23;;;;;;;50.03;20.10;;;;;;;-5.18;100.00;96755.16;5035334;28;20497;-69
2022/01/10 02:26:51;;;;;;;51.00;20.60;;;;;;;-5.14;100.00;96751.66;5052467;28;20046;-70
2022/01/10 02:29:18;;;;;;;48.00;19.90;;;;;;;-5.18;100.00;96752.59;5052296;28;20148;-70
2022/01/10 02:31:46;;;;;;;45.10;18.87;;;;;;;-5.17;100.00;96743.22;5035466;28;20125;-70
2022/01/10 02:34:16;;;;;;;52.33;18.93;;;;;;;-5.12;100.00;96752.47;5051858;28;20436;-71
2022/01/10 02:36:43;;;;;;;38.83;17.43;;;;;;;-5.08;100.00;96758.34;5052096;28;20033;-70
2022/01/10 02:39:12;;;;;;;44.27;17.13;;;;;;;-5.03;100.00;96749.69;5053436;28;20045;-69
2022/01/10 02:41:40;;;;;;;45.63;17.30;;;;;;;-4.93;100.00;96751.16;5053244;28;20106;-70
2022/01/10 02:44:11;;;;;;;40.33;14.60;;;;;;;-4.85;100.00;96745.81;5051605;28;20041;-70
2022/01/10 02:46:39;;;;;;;41.87;15.67;;;;;;;-4.82;100.00;96744.03;5051434;28;20131;-70
2022/01/10 02:49:23;;;;;;;33.10;14.23;;;;;;;-4.78;100.00;96744.78;5051573;28;20069;-70
2022/01/10 02:51:50;;;;;;;34.77;15.73;;;;;;;-4.74;100.00;96743.84;5051667;28;20040;-70
2022/01/10 02:54:19;;;;;;;40.40;17.43;;;;;;;-4.64;100.00;96756.41;5052457;28;20041;-69
2022/01/10 02:56:47;;;;;;;32.93;12.43;;;;;;;-4.55;100.00;96768.16;5051677;28;20094;-70
2022/01/10 02:59:14;;;;;;;32.60;14.23;;;;;;;-4.41;100.00;96776.34;5051449;28;20143;-70
2022/01/10 03:01:42;;;;;;;39.03;16.00;;;;;;;-4.33;100.00;96776.97;5051318;28;20123;-70
2022/01/10 03:04:09;;;;;;;34.87;13.37;;;;;;;-4.23;100.00;96773.28;5052679;28;20048;-70
2022/01/10 03:06:37;;;;;;;29.80;11.83;;;;;;;-4.11;100.00;96776.38;5051282;28;20049;-69
2022/01/10 03:09:06;;;;;;;28.60;12.03;;;;;;;-4.01;100.00;96782.97;5051530;28;20072;-70
2022/01/10 03:11:35;;;;;;;34.80;16.37;;;;;;;-4.15;100.00;96784.19;5052853;28;20520;-70
2022/01/10 03:14:02;;;;;;;35.87;13.33;;;;;;;-4.19;100.00;96796.28;5052353;28;20106;-70
2022/01/10 03:16:30;;;;;;;30.67;13.77;;;;;;;-4.12;100.00;96795.25;5051895;28;20045;-70
2022/01/10 03:18:57;;;;;;;35.13;14.20;;;;;;;-3.99;100.00;96813.75;5050876;28;20115;-68
2022/01/10 03:21:24;;;;;;;45.47;16.93;;;;;;;-4.12;100.00;96822.63;5052125;28;20064;-69
2022/01/10 03:23:52;;;;;;;41.23;18.87;;;;;;;-4.44;100.00;96826.03;5051794;28;20041;-69
2022/01/10 03:26:24;;;;;;;40.27;17.03;;;;;;;-4.49;100.00;96822.75;5051525;28;20052;-69
2022/01/10 03:28:52;;;;;;;50.37;19.37;;;;;;;-4.45;100.00;96824.34;5050781;28;20045;-70
2022/01/10 03:31:19;;;;;;;56.00;20.63;;;;;;;-4.65;100.00;96829.09;5050959;28;20178;-70
2022/01/10 03:33:47;;;;;;;57.70;20.10;;;;;;;-4.69;100.00;96829.25;5050827;28;20037;-68
2022/01/10 03:36:14;;;;;;;48.13;19.93;;;;;;;-4.80;100.00;96831.22;5050849;28;20485;-69
2022/01/10 03:38:41;;;;;;;45.47;16.93;;;;;;;-4.70;100.00;96837.78;5050925;28;20041;-70
2022/01/10 03:41:10;;;;;;;42.47;15.97;;;;;;;-4.53;100.00;96845.94;5050977;28;20098;-70
2022/01/10 03:43:37;;;;;;;53.40;18.43;;;;;;;-4.51;100.00;96841.63;5050777;28;20387;-70
2022/01/10 03:46:06;;;;;;;40.00;16.20;;;;;;;-4.42;100.00;96831.97;5050237;28;20072;-69
2022/01/10 03:48:33;;;;;;;49.23;19.07;;;;;;;-4.52;100.00;96842.47;5050479;28;20120;-69
2022/01/10 03:51:01;;;;;;;57.53;20.63;;;;;;;-4.64;100.00;96847.91;5052828;28;20045;-69
2022/01/10 03:53:30;;;;;;;36.67;16.30;;;;;;;-4.51;100.00;96857.03;5050404;28;20049;-69
2022/01/10 03:55:57;;;;;;;40.43;17.50;;;;;;;-4.29;100.00;96860.72;5050169;28;20044;-69
2022/01/10 03:58:24;;;;;;;61.57;24.33;;;;;;;-4.28;100.00;96862.44;5050184;28;20041;-70
2022/01/10 04:00:52;;;;;;;58.27;21.00;;;;;;;-4.42;100.00;96864.50;5049837;28;20087;-68
2022/01/10 04:03:20;;;;;;;67.60;24.33;;;;;;;-4.59;100.00;96872.59;5051345;28;20395;-69
2022/01/10 04:06:11;;;;;;;60.33;23.97;;;;;;;-4.54;100.00;96883.56;5053308;28;20504;-69
2022/01/10 04:08:38;;;;;;;70.13;25.97;;;;;;;-4.53;100.00;96880.16;5050276;28;20052;-70
2022/01/10 04:11:06;;;;;;;74.20;28.37;;;;;;;-4.94;100.00;96894.78;5051095;28;20128;-69
2022/01/10 04:13:35;;;;;;;85.40;32.17;;;;;;;-4.93;100.00;96896.47;5049699;28;20041;-70
2022/01/10 04:16:03;;;;;;;91.60;32.10;;;;;;;-4.86;100.00;96890.34;5049958;28;20041;-69
2022/01/10 04:18:31;;;;;;;75.93;28.80;;;;;;;-4.79;100.00;96900.44;5051372;28;20079;-70
2022/01/10 04:20:58;;;;;;;72.80;29.53;;;;;;;-4.65;100.00;96895.00;5050007;28;20048;-69
2022/01/10 04:23:26;;;;;;;75.17;27.50;;;;;;;-4.61;100.00;96891.47;5049670;28;20033;-70
2022/01/10 04:25:53;;;;;;;58.43;24.63;;;;;;;-4.54;100.00;96898.16;5049114;28;20056;-70
2022/01/10 04:28:20;;;;;;;68.33;28.43;;;;;;;-4.36;100.00;96898.53;5049359;28;20064;-70
2022/01/10 04:30:48;;;;;;;61.40;22.93;;;;;;;-4.23;100.00;96899.09;5049968;28;20037;-70
2022/01/10 04:33:18;;;;;;;53.77;21.53;;;;;;;-4.19;100.00;96910.97;5033093;28;20102;-70
2022/01/10 04:35:48;;;;;;;53.53;20.47;;;;;;;-4.20;100.00;96906.72;5049841;28;20029;-70
2022/01/10 04:38:16;;;;;;;51.10;20.23;;;;;;;-4.25;100.00;96899.13;5049572;28;20223;-70
2022/01/10 04:40:43;;;;;;;45.63;15.93;;;;;;;-4.22;100.00;96905.91;5050898;28;20037;-70
2022/01/10 04:43:11;;;;;;;44.23;17.20;;;;;;;-4.21;100.00;96911.00;5049255;28;20072;-70
2022/01/10 04:45:39;;;;;;;46.73;20.87;;;;;;;-4.18;100.00;96913.50;5049503;28;20405;-70
2022/01/10 04:48:06;;;;;;;41.33;17.60;;;;;;;-4.14;100.00;96917.69;5049256;28;20064;-70
2022/01/10 04:51:10;;;;;;;39.90;17.07;;;;;;;-4.07;100.00;96928.63;5048924;28;20072;-70
2022/01/10 04:53:34;;;;;;;45.20;14.70;;;;;;;-4.07;100.00;96923.50;5051066;28;20095;-70
2022/01/10 04:56:02;;;;;;;35.93;12.90;;;;;;;-4.10;100.00;96929.56;5049144;28;20094;-70
2022/01/10 04:58:29;;;;;;;35.87;14.77;;;;;;;-4.10;100.00;96923.59;5049020;28;20401;-69
2022/01/10 05:00:56;;;;;;;36.80;14.43;;;;;;;-4.01;100.00;96939.63;5050506;28;20128;-69
2022/01/10 05:03:25;;;;;;;35.60;12.60;;;;;;;-3.98;100.00;96934.41;5048801;28;20563;-69
2022/01/10 05:05:54;;;;;;;34.03;13.73;;;;;;;-3.89;100.00;96941.88;5049145;28;20432;-69
2022/01/10 05:08:22;;;;;;;36.67;14.27;;;;;;;-3.90;100.00;96941.91;5048896;28;20120;-69
2022/01/10 05:10:52;;;;;;;38.67;16.10;;;;;;;-3.93;100.00;96942.00;5048790;28;20044;-69
2022/01/10 05:13:20;;;;;;;36.77;13.20;;;;;;;-3.99;100.00;96939.59;5049012;28;20504;-69
2022/01/10 05:15:49;;;;;;;38.30;14.63;;;;;;;-3.89;100.00;96941.03;5048895;28;20504;-69
2022/01/10 05:18:17;;;;;;;36.80;13.03;;;;;;;-3.86;100.00;96936.66;5048930;28;20037;-70
2022/01/10 05:20:45;;;;;;;43.50;14.77;;;;;;;-3.84;100.00;96941.78;5049545;28;20045;-70
2022/01/10 05:23:12;;;;;;;46.73;17.73;;;;;;;-3.83;100.00;96948.59;5048775;28;20071;-69
2022/01/10 05:25:40;;;;;;;38.93;16.07;;;;;;;-3.83;100.00;96948.59;5048771;28;20068;-69
2022/01/10 05:28:13;;;;;;;35.37;13.60;;;;;;;-3.80;100.00;96959.63;5048918;28;20045;-70
2022/01/10 05:30:41;;;;;;;42.47;13.60;;;;;;;-3.79;100.00;96965.63;5048490;28;20044;-70
2022/01/10 05:33:09;;;;;;;39.30;14.67;;;;;;;-3.78;100.00;96967.28;5048671;28;20032;-71
2022/01/10 05:35:44;;;;;;;60.60;17.17;;;;;;;-3.83;100.00;96969.16;5049672;28;20041;-70
2022/01/10 05:38:11;;;;;;;46.70;14.90;;;;;;;-3.78;100.00;96970.72;5048187;28;20570;-70
2022/01/10 05:40:39;;;;;;;44.00;15.07;;;;;;;-3.77;100.00;96976.72;5048740;28;20528;-70
2022/01/10 05:43:08;;;;;;;44.00;14.97;;;;;;;-3.81;100.00;96978.50;5048374;28;20171;-70
2022/01/10 05:45:36;;;;;;;41.47;16.43;;;;;;;-3.86;100.00;96974.34;5049264;28;20129;-69
2022/01/10 05:48:11;;;;;;;41.50;15.30;;;;;;;-3.92;100.00;96977.09;5049142;28;20048;-69
2022/01/10 05:50:42;;;;;;;33.93;11.70;;;;;;;-3.94;100.00;96989.13;5049338;28;20037;-69
2022/01/10 05:53:11;;;;;;;40.47;13.73;;;;;;;-3.86;100.00;96995.75;5048419;28;20029;-70
2022/01/10 05:55:40;;;;;;;35.63;12.93;;;;;;;-3.85;100.00;96999.16;5048131;28;20366;-70
2022/01/10 05:58:10;;;;;;;34.27;12.40;;;;;;;-3.91;100.00;96996.75;5048569;28;20051;-69
2022/01/10 06:00:41;;;;;;;29.93;11.07;;;;;;;-3.89;100.00;97000.97;5048626;28;20045;-70
2022/01/10 06:03:08;;;;;;;23.80;11.13;;;;;;;-3.94;100.00;97009.66;5049724;28;20041;-70
2022/01/10 06:05:41;;;;;;;21.73;10.65;;;;;;;-3.88;100.00;97020.63;5048531;28;20037;-71
2022/01/10 06:08:09;;;;;;;22.37;10.40;;;;;;;-3.87;100.00;97024.91;5048017;28;20107;-70
2022/01/10 06:10:40;;;;;;;26.10;8.90;;;;;;;-3.89;100.00;97026.66;5048776;28;20099;-69
2022/01/10 06:13:19;;;;;;;19.17;9.27;;;;;;;-3.89;100.00;97034.34;5049550;28;20041;-70
2022/01/10 06:15:47;;;;;;;20.47;10.60;;;;;;;-3.86;100.00;97036.00;5048556;28;20040;-70
2022/01/10 06:18:14;;;;;;;25.73;11.27;;;;;;;-3.84;100.00;97044.53;5049841;28;20051;-70
2022/01/10 06:20:41;;;;;;;69.20;29.97;;;;;;;-3.81;100.00;97042.72;5049263;28;20462;-71
2022/01/10 06:23:09;;;;;;;35.20;16.67;;;;;;;-3.84;100.00;97045.34;5048029;28;20036;-69
2022/01/10 06:25:37;;;;;;;23.23;11.67;;;;;;;-3.83;100.00;97036.78;5048055;28;20041;-70
2022/01/10 06:28:05;;;;;;;27.50;10.63;;;;;;;-3.82;100.00;97045.31;5047883;28;20497;-70
2022/01/10 06:30:33;;;;;;;17.77;8.70;;;;;;;-3.79;100.00;97053.81;5048235;28;20680;-69
2022/01/10 06:33:02;;;;;;;27.80;9.23;;;;;;;-3.73;100.00;97057.97;5048002;28;20029;-69
2022/01/10 06:35:29;;;;;;;20.37;9.17;;;;;;;-3.73;100.00;97065.69;5049047;28;20037;-69
2022/01/10 06:37:57;;;;;;;16.20;8.57;;;;;;;-3.69;100.00;97065.53;5047965;28;20071;-70
2022/01/10 06:40:24;;;;;;;18.33;9.20;;;;;;;-3.71;100.00;97071.63;5047995;28;20436;-70
2022/01/10 06:42:51;;;;;;;17.40;8.93;;;;;;;-3.69;100.00;97072.44;5048354;28;20485;-71
2022/01/10 06:45:21;;;;;;;20.53;8.70;;;;;;;-3.74;100.00;97072.53;5047769;28;20099;-69
2022/01/10 06:47:49;;;;;;;22.67;11.77;;;;;;;-3.65;100.00;97081.75;5049683;28;20098;-69
2022/01/10 06:50:18;;;;;;;29.77;10.67;;;;;;;-3.65;100.00;97079.19;5052651;28;20106;-70
2022/01/10 06:52:46;;;;;;;20.17;9.40;;;;;;;-3.70;100.00;97081.00;5051593;28;20072;-69
2022/01/10 06:55:14;;;;;;;19.13;8.23;;;;;;;-3.77;100.00;97077.75;5051258;28;20045;-69
2022/01/10 06:57:43;;;;;;;18.87;9.07;;;;;;;-3.77;100.00;97076.91;5051809;28;20489;-69
2022/01/10 07:00:13;;;;;;;16.20;8.47;;;;;;;-3.82;100.00;97071.03;5051367;28;20812;-70
2022/01/10 07:02:47;;;;;;;15.90;8.10;;;;;;;-3.85;100.00;97076.22;5051212;28;20098;-70
2022/01/10 07:05:15;;;;;;;19.97;9.97;;;;;;;-3.78;100.00;97086.34;5051255;28;20440;-71
2022/01/10 07:07:46;;;;;;;13.43;8.03;;;;;;;-3.73;100.00;97091.38;5051247;28;20406;-71
2022/01/10 07:10:34;;;;;;;10.47;5.33;;;;;;;-3.79;100.00;97088.94;5050485;28;20461;-70
2022/01/10 07:13:01;;;;;;;16.83;7.83;;;;;;;-3.73;100.00;97096.53;5052221;28;20049;-71
2022/01/10 07:15:29;;;;;;;16.50;7.03;;;;;;;-3.60;100.00;97101.31;5051226;28;20043;-70
2022/01/10 07:18:00;;;;;;;16.93;8.77;;;;;;;-3.64;100.00;97109.13;5050871;28;20037;-71
2022/01/10 07:20:33;;;;;;;14.90;7.57;;;;;;;-3.78;100.00;97108.59;5050859;28;20079;-71
2022/01/10 07:23:01;;;;;;;15.83;7.37;;;;;;;-3.74;100.00;97115.38;5050823;28;20041;-71
2022/01/10 07:25:28;;;;;;;12.33;6.50;;;;;;;-3.68;100.00;97116.09;5050206;28;20449;-71
2022/01/10 07:27:55;;;;;;;23.87;11.80;;;;;;;-3.79;100.00;97122.34;5051349;28;20064;-71
2022/01/10 07:30:22;;;;;;;14.13;6.53;;;;;;;-3.82;100.00;97122.41;5051789;28;20041;-72
2022/01/10 07:32:50;;;;;;;10.37;5.43;;;;;;;-3.94;100.00;97125.25;5049214;28;20433;-73
2022/01/10 07:35:17;;;;;;;13.27;6.10;;;;;;;-3.80;100.00;97123.22;5051820;28;20064;-73
2022/01/10 07:37:44;;;;;;;9.43;5.07;;;;;;;-3.77;100.00;97124.00;5050769;28;20033;-74
2022/01/10 07:40:13;;;;;;;9.13;5.53;;;;;;;-3.75;100.00;97124.81;5050097;28;20045;-74
2022/01/10 07:42:40;;;;;;;14.27;7.27;;;;;;;-3.72;100.00;97124.75;5050126;28;20450;-73
2022/01/10 07:45:15;;;;;;;14.47;5.00;;;;;;;-3.72;100.00;97141.88;5049443;28;20120;-73
2022/01/10 07:47:43;;;;;;;17.60;7.57;;;;;;;-3.65;100.00;97144.25;5049441;28;20179;-68
2022/01/10 07:50:10;;;;;;;14.90;6.60;;;;;;;-3.52;100.00;97145.69;5050222;28;20077;-68
2022/01/10 07:52:37;;;;;;;14.70;6.60;;;;;;;-3.35;100.00;97147.84;5050338;28;20095;-71
2022/01/10 07:55:06;;;;;;;12.97;6.03;;;;;;;-3.31;100.00;97159.75;5032914;28;20045;-69
2022/01/10 07:57:34;;;;;;;15.30;6.80;;;;;;;-3.32;100.00;97173.50;5050616;28;20100;-70
2022/01/10 08:00:06;;;;;;;14.00;6.93;;;;;;;-3.44;100.00;97173.81;5050179;28;20052;-69
2022/01/10 08:02:39;;;;;;;13.67;7.77;;;;;;;-3.43;100.00;97181.44;5049264;28;20116;-70
2022/01/10 08:05:08;;;;;;;20.10;9.03;;;;;;;-3.33;100.00;97176.97;5050880;28;20581;-69
2022/01/10 08:07:35;;;;;;;13.80;7.77;;;;;;;-3.41;100.00;97189.13;5050330;28;20040;-68
2022/01/10 08:10:03;;;;;;;19.00;8.30;;;;;;;-3.43;100.00;97190.91;5046223;28;20485;-68
2022/01/10 08:12:30;;;;;;;13.43;7.03;;;;;;;-3.38;100.00;97194.22;5048647;28;20148;-68
2022/01/10 08:14:58;;;;;;;12.40;6.33;;;;;;;-3.40;100.00;97193.41;5049998;28;20063;-68
2022/01/10 08:17:25;;;;;;;11.87;6.33;;;;;;;-3.36;100.00;97205.31;5050013;28;20037;-69
2022/01/10 08:19:52;;;;;;;15.00;7.03;;;;;;;-3.34;100.00;97212.09;5049284;28;20102;-68
2022/01/10 08:22:19;;;;;;;16.87;6.83;;;;;;;-3.45;100.00;97206.38;5048966;28;20041;-69
2022/01/10 08:24:47;;;;;;;12.60;7.03;;;;;;;-3.36;100.00;97225.88;5049453;28;20048;-69
2022/01/10 08:27:15;;;;;;;15.43;7.70;;;;;;;-3.23;100.00;97222.13;5050244;28;20045;-69
2022/01/10 08:29:42;;;;;;;17.97;7.10;;;;;;;-3.16;100.00;97226.25;5050197;28;20049;-69
2022/01/10 08:32:11;;;;;;;15.77;6.53;;;;;;;-3.19;100.00;97221.19;5049184;28;20409;-69
2022/01/10 08:34:38;;;;;;;9.90;6.17;;;;;;;-3.17;100.00;97222.88;5051036;28;20060;-69
2022/01/10 08:39:49;;;;;;;8.20;5.03;;;;;;;-3.00;100.00;97232.72;5039267;28;20448;-71
2022/01/10 08:42:17;;;;;;;12.63;5.57;;;;;;;-2.97;100.00;97236.09;5049557;28;20033;-69
2022/01/10 08:44:44;;;;;;;11.73;5.13;;;;;;;-2.95;100.00;97229.16;5049449;28;20092;-70
2022/01/10 08:47:12;;;;;;;11.10;5.77;;;;;;;-2.96;100.00;97234.38;5049211;28;20037;-69
2022/01/10 08:49:39;;;;;;;10.70;5.50;;;;;;;-3.04;100.00;97231.97;5048425;28;20043;-68
2022/01/10 08:52:09;;;;;;;13.37;5.30;;;;;;;-3.07;100.00;97226.88;5048855;28;20060;-69
2022/01/10 08:54:36;;;;;;;16.77;7.83;;;;;;;-3.14;100.00;97233.06;5046219;28;20440;-69
2022/01/10 08:57:04;;;;;;;13.33;7.23;;;;;;;-3.16;100.00;97241.69;5048968;28;20037;-69
2022/01/10 08:59:32;;;;;;;13.97;7.40;;;;;;;-3.22;100.00;97242.69;5048677;28;20045;-70
2022/01/10 09:02:00;;;;;;;10.97;6.73;;;;;;;-3.21;100.00;97246.94;5049620;28;20581;-69
2022/01/10 09:04:28;;;;;;;10.87;5.97;;;;;;;-3.24;100.00;97249.59;5049658;28;20045;-67
2022/01/10 09:06:55;;;;;;;13.07;6.30;;;;;;;-3.21;100.00;97259.78;5047267;28;20482;-67
2022/01/10 09:09:23;;;;;;;13.80;6.70;;;;;;;-3.06;100.00;97256.03;5050549;28;20118;-66
2022/01/10 09:11:51;;;;;;;12.17;6.50;;;;;;;-3.11;100.00;97265.59;5049481;28;20493;-67
2022/01/10 09:14:18;;;;;;;12.73;6.53;;;;;;;-3.14;100.00;97260.53;5050991;28;20053;-68
2022/01/10 09:16:45;;;;;;;14.17;7.20;;;;;;;-3.04;100.00;97259.41;5052109;28;20055;-66
2022/01/10 09:19:12;;;;;;;11.00;6.10;;;;;;;-2.99;100.00;97265.31;5051004;28;20053;-67
2022/01/10 09:21:42;;;;;;;12.07;6.03;;;;;;;-3.08;100.00;97257.78;5050175;28;20032;-67
2022/01/10 09:24:09;;;;;;;14.40;6.50;;;;;;;-3.17;100.00;97258.03;5050420;28;20056;-66
2022/01/10 09:26:36;;;;;;;11.27;6.33;;;;;;;-3.24;100.00;97259.88;5050115;28;20123;-69
2022/01/10 09:29:03;;;;;;;14.33;6.80;;;;;;;-3.12;100.00;97266.47;5050038;28;20047;-66
2022/01/10 09:31:31;;;;;;;14.83;6.77;;;;;;;-3.11;100.00;97265.59;5050076;28;20056;-70
2022/01/10 09:33:58;;;;;;;13.30;7.10;;;;;;;-3.08;100.00;97270.66;5050225;28;20446;-68
2022/01/10 09:36:29;;;;;;;16.83;8.43;;;;;;;-3.19;100.00;97276.06;5048266;28;20041;-68
2022/01/10 09:38:58;;;;;;;30.20;13.00;;;;;;;-3.35;100.00;97281.56;5050257;28;20041;-68
2022/01/10 09:41:26;;;;;;;22.27;9.57;;;;;;;-3.44;100.00;97290.31;5049974;28;20679;-70
2022/01/10 09:43:57;;;;;;;22.07;9.00;;;;;;;-3.43;100.00;97286.03;5049032;28;20052;-68
2022/01/10 09:46:25;;;;;;;30.30;11.53;;;;;;;-3.58;100.00;97273.50;5049741;28;20029;-69
2022/01/10 09:48:53;;;;;;;54.87;26.37;;;;;;;-3.54;100.00;97275.97;5048318;28;20045;-66
2022/01/10 09:51:22;;;;;;;25.57;11.13;;;;;;;-3.45;100.00;97287.78;5049273;28;20152;-69
2022/01/10 09:53:49;;;;;;;26.40;12.03;;;;;;;-3.45;100.00;97290.34;5053461;28;20049;-68
2022/01/10 09:56:17;;;;;;;27.40;11.77;;;;;;;-3.39;100.00;97296.22;5049654;28;20047;-65
2022/01/10 09:58:44;;;;;;;27.80;9.60;;;;;;;-3.33;100.00;97295.25;5048676;28;20507;-70
2022/01/10 10:01:14;;;;;;;23.80;10.07;;;;;;;-3.57;100.00;97293.19;5048390;28;20076;-68
2022/01/10 10:03:45;;;;;;;24.03;11.43;;;;;;;-3.65;100.00;97295.88;5048267;28;20037;-68
2022/01/10 10:06:12;;;;;;;27.73;12.10;;;;;;;-3.52;100.00;97296.50;5048523;28;20033;-68
2022/01/10 10:08:40;;;;;;;23.47;10.33;;;;;;;-3.46;100.00;97298.94;5048210;28;20055;-68
2022/01/10 10:11:08;;;;;;;22.33;11.67;;;;;;;-3.51;100.00;97295.63;5047889;28;20041;-68
2022/01/10 10:13:43;;;;;;;16.70;8.47;;;;;;;-3.57;100.00;97295.75;5047270;28;20136;-69
2022/01/10 10:16:15;;;;;;;19.87;8.27;;;;;;;-3.60;100.00;97300.94;5048310;28;20473;-70
2022/01/10 10:18:43;;;;;;;18.27;8.83;;;;;;;-3.68;100.00;97308.84;5047672;28;20115;-73
2022/01/10 10:21:15;;;;;;;15.40;7.97;;;;;;;-3.72;100.00;97308.91;5047516;28;20130;-72
2022/01/10 10:23:46;;;;;;;16.47;7.97;;;;;;;-3.70;100.00;97310.56;5049878;28;20099;-72
2022/01/10 10:26:19;;;;;;;16.33;7.23;;;;;;;-3.59;100.00;97320.63;5052096;28;20151;-70
2022/01/10 10:28:48;;;;;;;;;;;;;;;-3.50;100.00;97315.31;5052653;28;20048;-69
2022/01/10 10:31:24;;;;;;;12.43;7.60;;;;;;;-3.58;100.00;97324.91;5050780;28;19930;-69
2022/01/10 10:33:53;;;;;;;16.27;8.23;;;;;;;-3.69;100.00;97322.53;5052127;28;20044;-70
2022/01/10 10:36:20;;;;;;;17.87;9.30;;;;;;;-3.55;100.00;97324.84;5053134;28;20211;-68
2022/01/10 10:38:47;;;;;;;18.13;8.63;;;;;;;-3.54;100.00;97334.25;5054320;28;20064;-71
2022/01/10 10:41:15;;;;;;;18.73;10.17;;;;;;;-3.63;100.00;97331.84;5053971;28;20482;-68
2022/01/10 10:43:43;;;;;;;18.03;9.63;;;;;;;-3.82;100.00;97330.50;5053924;28;20434;-68
2022/01/10 10:46:16;;;;;;;22.17;10.90;;;;;;;-3.86;100.00;97328.88;5052506;28;20136;-70
2022/01/10 10:48:48;;;;;;;18.35;8.75;;;;;;;-3.89;100.00;97336.63;5053494;28;20172;-71
2022/01/10 10:51:16;;;;;;;17.13;8.77;;;;;;;-3.76;100.00;97330.41;5054099;28;20041;-71
2022/01/10 10:53:43;;;;;;;19.87;8.83;;;;;;;-3.62;100.00;97334.38;5054807;28;20128;-70
2022/01/10 10:56:10;;;;;;;23.00;8.80;;;;;;;-3.61;100.00;97328.41;5044791;28;20045;-71
2022/01/10 10:58:39;;;;;;;12.83;7.43;;;;;;;-3.57;100.00;97331.72;5051072;28;20040;-69
2022/01/10 11:01:06;;;;;;;14.07;7.43;;;;;;;-3.64;100.00;97330.16;5051171;28;20076;-70
2022/01/10 11:03:36;;;;;;;14.03;6.73;;;;;;;-3.64;100.00;97335.31;5047504;28;20064;-69
2022/01/10 11:06:05;;;;;;;13.00;6.73;;;;;;;-3.62;100.00;97324.09;5044840;28;20037;-70
2022/01/10 11:08:36;;;;;;;17.63;7.20;;;;;;;-3.66;100.00;97329.38;5048588;28;20120;-69
2022/01/10 11:11:04;;;;;;;20.50;7.47;;;;;;;-3.68;100.00;97333.66;5045358;28;20037;-69
2022/01/10 11:13:31;;;;;;;17.63;7.60;;;;;;;-3.75;100.00;97329.53;5046402;28;20048;-71
2022/01/10 11:15:59;;;;;;;12.37;6.50;;;;;;;-3.64;100.00;97325.03;5045018;28;20051;-69
2022/01/10 11:18:27;;;;;;;17.10;8.23;;;;;;;-3.65;100.00;97331.03;5048525;28;20075;-65
2022/01/10 11:20:57;;;;;;;20.20;8.80;;;;;;;-3.67;100.00;97332.78;5049071;28;20049;-68
2022/01/10 11:23:24;;;;;;;18.10;9.00;;;;;;;-3.55;100.00;97327.44;5046854;28;20875;-68
2022/01/10 11:25:51;;;;;;;13.17;6.30;;;;;;;-3.52;100.00;97324.75;5048668;28;20072;-67
2022/01/10 11:28:24;;;;;;;15.07;8.07;;;;;;;-3.36;100.00;97326.16;5051155;28;20206;-66
2022/01/10 11:30:52;;;;;;;16.87;8.33;;;;;;;-3.15;100.00;97325.69;5052026;28;20051;-68